Flight Track Log - Related Links

Times and Time Zones

All times are in EDT time to prevent confusion due to time zone crossing. See the ASQ4252 flight status page for this flight to view local times or setup timezone preferences in your user account.

Time Position Orientation Groundspeed Altitude Reporting Facility
EDT Latitude Longitude Course Direction KTS MPH feet Rate Location/Type
Wed 11:05:44 AM 36.3586 -94.3344 348° North 182 209 4,400  Level Kansas City Center
Wed 11:06:46 AM 36.4328 -94.3503 350° North 201 231 6,900 2,419 Climbing Kansas City Center
Wed 11:07:00 AM 36.6089 -94.3696 345° North  Level FlightAware Approximate
Wed 11:07:48 AM 36.5136 -94.3656 351° North 252 290 9,400  Level Kansas City Center
Wed 11:08:00 AM 36.6938 -94.3921 351° North  Level FlightAware Approximate
Wed 11:08:50 AM 36.5883 -94.3814 350° North 272 313 11,400  Level Kansas City Center
Wed 11:09:00 AM 36.7769 -94.4087 351° North  Level FlightAware Approximate
Wed 11:09:52 AM 36.6589 -94.3297 30° Northeast 302 348 13,000  Level Kansas City Center
Wed 11:10:00 AM 36.8446 -94.4090 60° Northeast  Level FlightAware Approximate
Wed 11:10:54 AM 36.7222 -94.2403 49° Northeast 334 384 14,300  Level Kansas City Center
Wed 11:11:56 AM 36.7878 -94.1475 49° Northeast 350 403 15,800 1,403 Climbing Kansas City Center
Wed 11:12:58 AM 36.8700 -94.0325 48° Northeast 365 420 17,200 1,355 Climbing Kansas City Center
Wed 11:14:00 AM 36.9378 -93.9319 50° Northeast 374 430 18,600 1,355 Climbing Kansas City Center
Wed 11:15:02 AM 37.0053 -93.8342 49° Northeast 373 429 20,000 1,500 Climbing Kansas City Center
Wed 11:16:04 AM 37.0753 -93.7342 49° Northeast 374 430 21,700 1,403 Climbing Kansas City Center
Wed 11:17:06 AM 37.1428 -93.6381 49° Northeast 368 423 22,900 864 Climbing Kansas City Center
Wed 11:18:09 AM 37.2125 -93.5372 49° Northeast 378 435 23,500 576 Climbing Kansas City Center
Wed 11:19:11 AM 37.2864 -93.4314 49° Northeast 396 456 24,100 581 Climbing Kansas City Center
Wed 11:20:13 AM 37.3803 -93.3047 47° Northeast 406 467 24,700 532 Climbing Kansas City Center
Wed 11:21:15 AM 37.4753 -93.2211 35° Northeast 412 474 25,200 484 Climbing Kansas City Center
Wed 11:22:17 AM 37.5719 -93.1336 36° Northeast 422 486 25,700 532 Climbing Kansas City Center
Wed 11:23:19 AM 37.6692 -93.0458 36° Northeast 427 491 26,300 532 Climbing Kansas City Center
Wed 11:24:21 AM 37.7647 -92.9536 37° Northeast 430 495 26,800 484 Climbing Kansas City Center
Wed 11:25:23 AM 37.8622 -92.8633 36° Northeast 431 496 27,300 532 Climbing Kansas City Center
Wed 11:26:25 AM 37.9594 -92.7733 36° Northeast 429 494 27,900 581 Climbing Kansas City Center
Wed 11:27:27 AM 38.0636 -92.6764 36° Northeast 429 494 28,500 677 Climbing Kansas City Center
Wed 11:28:29 AM 38.1586 -92.5858 37° Northeast 427 491 29,300 968 Climbing Kansas City Center
Wed 11:29:31 AM 38.2686 -92.4847 36° Northeast 421 484 30,500 1,065 Climbing Kansas City Center
Wed 11:30:33 AM 38.3608 -92.3950 37° Northeast 415 478 31,500 968 Climbing Kansas City Center
Wed 11:31:35 AM 38.4533 -92.3078 36° Northeast 412 474 32,500 968 Climbing Kansas City Center
Wed 11:32:37 AM 38.5442 -92.2194 37° Northeast 409 471 33,500 1,016 Climbing Kansas City Center
Wed 11:33:39 AM 38.6353 -92.1319 37° Northeast 408 470 34,600 726 Climbing Kansas City Center
Wed 11:34:41 AM 38.7264 -92.0461 36° Northeast 407 468 35,000 194 Climbing Kansas City Center
Wed 11:35:43 AM 38.8228 -91.9542 37° Northeast 416 479 35,000  Level Kansas City Center
Wed 11:36:45 AM 38.9428 -91.8375 37° Northeast 435 501 35,000  Level Kansas City Center
Wed 11:37:47 AM 39.0453 -91.7378 37° Northeast 449 517 35,000  Level Kansas City Center
Wed 11:38:49 AM 39.1456 -91.6381 38° Northeast 453 521 35,000  Level Kansas City Center
Wed 11:39:51 AM 39.2497 -91.5353 37° Northeast 461 531 35,000  Level Kansas City Center
Wed 11:40:53 AM 39.3531 -91.4353 37° Northeast 464 534 35,000  Level Kansas City Center
Wed 11:41:55 AM 39.4550 -91.3339 38° Northeast 462 532 35,000 -726 Level Kansas City Center
Wed 11:42:57 AM 39.5564 -91.2325 38° Northeast 461 531 33,500 -968 Descending Kansas City Center
Wed 11:43:59 AM 39.6583 -91.1317 37° Northeast 461 531 33,000 -240 Descending Kansas City Center
Wed 11:45:02 AM 39.7689 -91.0211 38° Northeast 459 528 33,000  Level Kansas City Center
Wed 11:46:04 AM 39.8844 -90.9053 38° Northeast 456 525 33,000  Level Kansas City Center
Wed 11:47:06 AM 39.9844 -90.8047 38° Northeast 454 522 33,000  Level Kansas City Center
Wed 11:48:08 AM 40.0844 -90.7028 38° Northeast 455 524 33,000  Level Kansas City Center
Wed 11:48:39 AM 40.1261 -90.6611 37° Northeast 456 525 33,000  Level Chicago Center
Wed 11:49:10 AM 40.1853 -90.5992 39° Northeast 458 527 33,000  Level Kansas City Center
Wed 11:50:12 AM 40.2861 -90.4978 37° Northeast 458 527 33,000  Level Kansas City Center
Wed 11:51:14 AM 40.3872 -90.3936 38° Northeast 459 528 33,000  Level Kansas City Center
Wed 11:51:46 AM 40.4483 -90.3319 38° Northeast 459 528 33,000 -64 Level Chicago Center
Wed 11:52:48 AM 40.5597 -90.2150 39° Northeast 459 528 32,900 -774 Descending Chicago Center
Wed 11:53:50 AM 40.6611 -90.1119 38° Northeast 461 531 31,400 -1,452 Descending Chicago Center
Wed 11:54:52 AM 40.7633 -90.0083 38° Northeast 466 536 29,900 -1,452 Descending Chicago Center
Wed 11:55:54 AM 40.8669 -89.8992 39° Northeast 476 548 28,400 -1,403 Descending Chicago Center
Wed 11:56:56 AM 40.9664 -89.7892 40° Northeast 471 542 27,000 -1,548 Descending Chicago Center
Wed 11:57:58 AM 41.0592 -89.6194 54° Northeast 479 551 25,200 -1,790 Descending Chicago Center
Wed 11:59:00 AM 41.1314 -89.4744 56° Northeast 476 548 23,300 -2,371 Descending Chicago Center
Wed 12:00:02 PM 41.2011 -89.3369 56° Northeast 459 528 20,300 -2,710 Descending Chicago Center
Wed 12:01:04 PM 41.2661 -89.2067 56° Northeast 423 487 17,700 -2,274 Descending Chicago Center
Wed 12:02:06 PM 41.3261 -89.0833 57° Northeast 407 468 15,600 -2,160 Descending Chicago Center
Wed 12:03:09 PM 41.3975 -88.9419 56° Northeast 386 444 13,200 -2,112 Descending Chicago Center
Wed 12:04:11 PM 41.4536 -88.8258 57° Northeast 375 432 11,200 -1,065 Descending Chicago Center
Wed 12:05:13 PM 41.5100 -88.7097 57° Northeast 373 429 11,000 -48 Descending Chicago Center
Wed 12:06:15 PM 41.5597 -88.5858 62° Northeast 377 434 11,100 -339 Climbing Chicago Center
Wed 12:07:17 PM 41.5756 -88.4725 79° East 321 369 10,300 -919 Descending Chicago Center
Wed 12:08:19 PM 41.5886 -88.3619 81° East 304 350 9,200 -1,016 Descending Chicago Center
Wed 12:09:21 PM 41.6361 -88.2636 57° Northeast 268 308 8,200 -823 Descending Chicago Center
Wed 12:10:23 PM 41.6947 -88.2053 37° Northeast 259 298 7,500 -1,113 Descending Chicago Center
Wed 12:11:25 PM 41.7503 -88.1383 42° Northeast 266 306 5,900 -1,452 Descending Chicago Center
Wed 12:12:27 PM 41.8044 -88.0761 41° Northeast 263 303 4,500 -1,355 Descending Chicago Center

Login

Don't have an account? Register now (free) for customized features, flight alerts, and more!